Friars Point, Mississippi
Current Conditions -  °F | °C
As of 2:35 PM on Monday 22 Dec 2014 (Local Time) from KCKM Reporting Station
Overcast Overcast  
Wind Chill: 59°   Ceiling: 1400
Heat Index: 59°   Visibility: 10mi
Dew Point: 57°   Wind: 17mph
Humidity: 94%   Direction: 150°SSE
Pressure: 29.62"   Gusts: 22mph
Location:  34.37°N, 90.64°W
Report Text: KCKM 222035Z AUTO 15015G19KT 10SM BKN014 OVC060 15/14 A2962 RMK AO1
Loading
Personal Weather Stations






























Interactive Weather Map New forecast layout! Learn more

10-Day Weather Forecast

Advertisements
Track Severe Weather on mobile